KHTH

Hawthorne Industrial Airport

Hawthorne, Nevada, USA
METAR KHTH 230115Z AUTO 25004KT 10SM CLR 17/M07 A2995 RMK A01
Observed Flight Rules
Oct-23 @ 01:15 UTC (26 minutes ago) Visual Flight Rules
Wind Visibility Clouds
250° at 4 knots 10 miles
  • Clear skies
Temperatures Readings
Current 17°C / 63°F
Dewpoint -7°C / 19°F
Humidity 19%
Altimeter 29.95" Hg
Pressure 1014 hPa
METAR KHTH 230115Z AUTO 25004KT 10SM CLR 17/M07 A2995 RMK A01
Observed Flight Rules
Oct-23 @ 01:15 UTC
(26 minutes ago)
VFR
Wind Visibility
250° at 4 knots 10 miles
Clouds
  • Clear skies
Temperature Dewpoint
17°C / 63°F -7°C / 19°F
Humidity Altimeter Pressure
19% 29.95" Hg 1014 hPa